Terminal Aerodrome Forecast
Issued by NWS

Home | Current Version | Previous Version | Text Only | Print | Product List | Glossary On
Versions: 1 2 3 4 5 6 7 8 9 10 11 12 13 14 15
411
FTUS42 KTBW 032326
TAFPIE
TAF
KPIE 032326Z 0400/0424 08008KT P6SM FEW035 FEW250
     FM041400 12009KT P6SM FEW060 SCT250
     FM042000 16008KT P6SM FEW110 SCT250
     FM042300 17004KT P6SM SCT015 BKN250=

USA.gov is the U.S. government's official web portal to all federal, state and local government web resources and services.